Time;durP1;ratioP1;P1;durP2;ratioP2;P2;SDS_P1;SDS_P2;PMS_P1;PMS_P2;Temp;Humidity;BMP_temperature;BMP_pressure;BME280_temperature;BME280_humidity;BME280_pressure;Samples;Min_cycle;Max_cycle;Signal;HPM_P1;HPM_P2
2023/07/31 00:02:12;;;;;;;32.93;10.20;;;;;;;14.99;100.00;100952.03;4936959;29;20047;-93
2023/07/31 00:04:37;;;;;;;32.50;9.07;;;;;;;15.03;100.00;100954.97;4935985;29;20039;-92
2023/07/31 00:07:04;;;;;;;39.50;9.20;;;;;;;15.01;100.00;100959.03;4935945;29;20028;-93
2023/07/31 00:09:29;;;;;;;42.08;9.55;;;;;;;14.99;100.00;100965.53;4936106;29;20497;-92
2023/07/31 00:11:54;;;;;;;34.87;9.13;;;;;;;14.98;100.00;100969.31;4936014;29;20336;-92
2023/07/31 00:14:20;;;;;;;31.07;8.57;;;;;;;14.92;100.00;100951.56;4939284;29;20267;-92
2023/07/31 00:16:45;;;;;;;27.70;8.03;;;;;;;14.83;100.00;100942.47;4953286;29;20063;-93
2023/07/31 00:19:10;;;;;;;33.20;7.80;;;;;;;14.93;100.00;100961.28;4938138;29;20055;-93
2023/07/31 00:21:36;;;;;;;37.07;8.13;;;;;;;14.87;100.00;100954.31;4944811;29;20024;-92
2023/07/31 00:24:01;;;;;;;31.97;7.27;;;;;;;14.90;100.00;100950.22;4948956;29;20107;-92
2023/07/31 00:26:26;;;;;;;29.93;7.90;;;;;;;14.87;100.00;100940.81;4936909;29;20335;-92
2023/07/31 00:28:52;;;;;;;32.67;8.33;;;;;;;14.85;100.00;100943.00;4937341;29;20034;-92
2023/07/31 00:31:17;;;;;;;28.73;7.37;;;;;;;14.86;100.00;100946.50;4936240;29;20032;-92
2023/07/31 00:33:42;;;;;;;28.47;7.13;;;;;;;14.95;100.00;100955.59;4935658;29;20054;-92
2023/07/31 00:36:07;;;;;;;32.43;8.10;;;;;;;14.89;100.00;100944.03;4935982;29;20060;-92
2023/07/31 00:38:33;;;;;;;34.17;7.60;;;;;;;14.95;100.00;100948.31;4939718;29;20495;-92
2023/07/31 00:40:58;;;;;;;35.97;8.33;;;;;;;14.97;100.00;100956.91;4945247;29;20032;-93
2023/07/31 00:43:24;;;;;;;32.67;7.80;;;;;;;14.96;100.00;100955.31;4936963;29;20498;-92
2023/07/31 00:45:50;;;;;;;27.90;7.25;;;;;;;14.94;100.00;100946.72;4935655;29;20039;-92
2023/07/31 00:48:15;;;;;;;28.47;7.00;;;;;;;14.96;100.00;100939.13;4936522;29;20032;-93
2023/07/31 00:50:41;;;;;;;29.20;7.13;;;;;;;14.96;100.00;100949.09;4936114;29;20059;-92
2023/07/31 00:53:06;;;;;;;27.40;7.07;;;;;;;14.89;100.00;100938.66;4936025;29;20323;-92
2023/07/31 00:55:32;;;;;;;30.37;7.20;;;;;;;14.92;100.00;100937.25;4935999;29;20027;-93
2023/07/31 00:57:57;;;;;;;21.45;6.22;;;;;;;14.89;100.00;100938.66;4935043;29;20027;-93
2023/07/31 01:00:23;;;;;;;23.23;6.50;;;;;;;14.90;100.00;100931.34;4935583;29;20087;-92
2023/07/31 01:02:50;;;;;;;22.23;6.30;;;;;;;14.84;100.00;100927.91;4935262;29;20544;-93
2023/07/31 01:05:15;;;;;;;24.27;6.40;;;;;;;14.91;100.00;100936.47;4935562;29;20091;-93
2023/07/31 01:07:52;;;;;;;25.00;5.80;;;;;;;14.94;100.00;100938.59;4934972;29;20028;-93
2023/07/31 01:10:23;;;;;;;23.38;6.68;;;;;;;14.91;100.00;100938.34;4935158;29;20023;-94
2023/07/31 01:12:51;;;;;;;25.00;5.65;;;;;;;14.90;100.00;100934.88;4934956;29;20062;-93
2023/07/31 01:15:17;;;;;;;27.58;6.68;;;;;;;14.87;100.00;100929.25;4935368;29;20055;-93
2023/07/31 01:17:43;;;;;;;27.52;6.40;;;;;;;14.81;100.00;100914.97;4933277;29;20031;-92
2023/07/31 01:20:13;;;;;;;22.60;5.60;;;;;;;14.87;100.00;100934.63;4935440;29;20035;-92
2023/07/31 01:23:04;;;;;;;27.95;6.53;;;;;;;14.82;100.00;100927.38;4935138;29;20024;-92
2023/07/31 01:25:46;;;;;;;25.25;6.10;;;;;;;14.82;100.00;100936.28;4934850;29;20517;-93
2023/07/31 01:28:18;;;;;;;24.00;6.03;;;;;;;14.76;100.00;100929.31;4933158;29;20571;-92
2023/07/31 01:30:47;;;;;;;26.92;6.63;;;;;;;14.77;100.00;100930.94;4935037;29;20088;-93
2023/07/31 01:33:15;;;;;;;28.30;6.22;;;;;;;14.77;100.00;100922.03;4934856;29;20041;-93
2023/07/31 01:35:43;;;;;;;26.13;6.10;;;;;;;14.72;100.00;100916.69;4943182;28;20016;-93
2023/07/31 01:38:09;;;;;;;23.75;5.80;;;;;;;14.72;100.00;100927.47;4949021;29;20032;-93
2023/07/31 01:40:34;;;;;;;22.73;6.03;;;;;;;14.72;100.00;100932.88;4935292;29;20036;-92
2023/07/31 01:43:00;;;;;;;20.07;5.50;;;;;;;14.67;100.00;100921.00;4950686;29;20016;-93
2023/07/31 01:45:25;;;;;;;24.20;5.47;;;;;;;14.72;100.00;100927.47;4939791;29;20038;-93
2023/07/31 01:47:50;;;;;;;22.45;5.82;;;;;;;14.73;100.00;100924.47;4934784;29;20047;-93
2023/07/31 01:50:16;;;;;;;22.27;6.07;;;;;;;14.68;100.00;100922.66;4934838;29;20028;-93
2023/07/31 01:52:41;;;;;;;23.60;5.43;;;;;;;14.49;100.00;100892.03;4934349;29;20047;-93
2023/07/31 01:55:07;;;;;;;24.20;5.70;;;;;;;14.59;100.00;100918.94;4935030;29;20395;-93
2023/07/31 01:57:32;;;;;;;21.13;6.15;;;;;;;14.60;100.00;100919.72;4933653;29;20038;-92
2023/07/31 01:59:57;;;;;;;23.80;6.10;;;;;;;14.46;100.00;100895.28;4934981;29;20032;-94
2023/07/31 02:02:24;;;;;;;25.30;6.60;;;;;;;14.52;100.00;100904.97;4934427;29;20652;-95
2023/07/31 02:04:49;;;;;;;20.67;6.28;;;;;;;14.32;100.00;100877.06;4933471;29;20110;-91
2023/07/31 02:07:15;;;;;;;21.60;6.13;;;;;;;14.43;100.00;100895.84;4934122;29;20051;-91
2023/07/31 02:09:40;;;;;;;24.08;5.95;;;;;;;14.42;100.00;100895.06;4937137;29;20620;-93
2023/07/31 02:12:08;;;;;;;20.53;5.63;;;;;;;14.43;100.00;100898.53;4933690;29;20424;-93
2023/07/31 02:14:33;;;;;;;26.35;6.28;;;;;;;14.43;100.00;100901.25;4933613;29;20048;-92
2023/07/31 02:16:59;;;;;;;22.23;6.03;;;;;;;14.39;100.00;100891.06;4933008;29;20146;-93
2023/07/31 02:19:24;;;;;;;21.27;5.43;;;;;;;14.38;100.00;100880.53;4935024;29;20038;-92
2023/07/31 02:21:49;;;;;;;26.60;5.83;;;;;;;14.41;100.00;100888.06;4936272;29;20032;-93
2023/07/31 02:24:15;;;;;;;26.33;5.95;;;;;;;14.37;100.00;100887.00;4934867;29;20032;-93
2023/07/31 02:26:41;;;;;;;25.90;7.10;;;;;;;14.31;100.00;100863.91;4933635;29;20028;-93
2023/07/31 02:29:07;;;;;;;25.95;6.82;;;;;;;14.36;100.00;100882.69;4934556;29;20027;-93
2023/07/31 02:31:32;;;;;;;24.97;7.00;;;;;;;14.32;100.00;100868.19;4934318;29;20083;-94
2023/07/31 02:33:58;;;;;;;22.63;6.03;;;;;;;14.34;100.00;100871.38;4933937;29;20024;-93
2023/07/31 02:36:23;;;;;;;21.47;6.40;;;;;;;14.34;100.00;100877.59;4933640;29;20031;-93
2023/07/31 02:38:48;;;;;;;28.43;6.63;;;;;;;14.29;100.00;100868.75;4934159;29;20507;-94
2023/07/31 02:41:14;;;;;;;22.57;6.80;;;;;;;14.28;100.00;100869.84;4933987;29;20287;-93
2023/07/31 02:43:39;;;;;;;23.67;6.47;;;;;;;14.30;100.00;100871.16;4934340;29;20535;-92
2023/07/31 02:46:04;;;;;;;27.97;6.50;;;;;;;14.26;100.00;100869.31;4932475;29;20046;-93
2023/07/31 02:48:31;;;;;;;20.20;5.87;;;;;;;14.30;100.00;100868.47;4934248;29;20107;-93
2023/07/31 02:50:56;;;;;;;24.90;6.30;;;;;;;14.22;100.00;100864.50;4934056;29;20378;-93
2023/07/31 02:53:24;;;;;;;28.75;6.40;;;;;;;14.00;100.00;100840.69;4940123;23;20102;-92
2023/07/31 02:55:49;;;;;;;29.57;6.73;;;;;;;14.08;100.00;100836.56;4938627;29;20020;-92
2023/07/31 02:58:25;;;;;;;21.17;5.97;;;;;;;14.03;100.00;100836.59;4949146;29;20866;-93
2023/07/31 03:00:50;;;;;;;19.95;5.97;;;;;;;13.92;100.00;100817.84;4934386;29;20036;-93
2023/07/31 03:03:15;;;;;;;22.87;5.93;;;;;;;14.13;100.00;100851.88;4947827;29;20043;-92
2023/07/31 03:05:40;;;;;;;20.33;5.68;;;;;;;14.27;100.00;100860.16;4935865;29;20051;-92
2023/07/31 03:08:06;;;;;;;25.27;6.37;;;;;;;14.29;100.00;100866.84;4934671;29;20032;-92
2023/07/31 03:10:32;;;;;;;18.58;5.97;;;;;;;14.11;100.00;100840.59;4937123;29;20031;-93
2023/07/31 03:12:57;;;;;;;18.07;6.07;;;;;;;14.29;100.00;100860.66;4937632;29;20106;-93
2023/07/31 03:15:23;;;;;;;16.73;5.80;;;;;;;14.27;100.00;100860.94;4937970;29;20424;-93
2023/07/31 03:17:48;;;;;;;21.83;5.60;;;;;;;14.25;100.00;100860.41;4937594;29;20608;-93
2023/07/31 03:20:13;;;;;;;20.70;5.47;;;;;;;14.34;100.00;100869.53;4940252;29;20476;-93
2023/07/31 03:22:39;;;;;;;23.67;6.50;;;;;;;14.21;100.00;100844.00;4938943;29;20764;-93
2023/07/31 03:25:04;;;;;;;26.20;5.87;;;;;;;14.34;100.00;100866.00;4938609;29;20035;-93
2023/07/31 03:27:30;;;;;;;22.95;5.53;;;;;;;14.33;100.00;100861.72;4937883;29;20035;-93
2023/07/31 03:29:55;;;;;;;23.70;5.70;;;;;;;14.33;100.00;100857.13;4937618;29;20039;-94
2023/07/31 03:32:21;;;;;;;22.83;6.60;;;;;;;14.34;100.00;100853.34;4938950;29;20065;-94
2023/07/31 03:34:46;;;;;;;19.90;5.73;;;;;;;14.41;100.00;100853.00;4938752;29;20038;-93
2023/07/31 03:37:11;;;;;;;20.40;5.40;;;;;;;14.33;100.00;100838.25;4937743;29;20376;-93
2023/07/31 03:39:37;;;;;;;17.40;5.53;;;;;;;14.31;100.00;100826.16;4935942;29;20047;-93
2023/07/31 03:42:02;;;;;;;19.23;5.53;;;;;;;14.35;100.00;100843.34;4937756;29;20036;-92
2023/07/31 03:44:28;;;;;;;25.52;6.00;;;;;;;14.34;100.00;100829.09;4936696;29;20101;-93
2023/07/31 03:46:53;;;;;;;22.67;5.87;;;;;;;14.45;100.00;100832.50;4936988;29;20035;-93
2023/07/31 03:49:19;;;;;;;26.93;6.00;;;;;;;14.47;100.00;100829.50;4936642;29;20028;-93
2023/07/31 03:51:44;;;;;;;25.67;6.20;;;;;;;14.44;100.00;100816.59;4936990;29;20024;-93
2023/07/31 03:54:09;;;;;;;20.42;5.85;;;;;;;14.52;100.00;100824.88;4935848;29;20055;-93
2023/07/31 03:56:35;;;;;;;17.67;5.70;;;;;;;14.51;100.00;100825.16;4937262;29;20063;-93
2023/07/31 03:59:00;;;;;;;17.90;5.57;;;;;;;14.58;100.00;100812.16;4936624;29;20399;-92
2023/07/31 04:01:26;;;;;;;21.23;5.53;;;;;;;14.62;100.00;100809.69;4938363;29;20066;-93
2023/07/31 04:03:52;;;;;;;27.77;5.13;;;;;;;14.64;100.00;100812.91;4937698;29;20475;-92
2023/07/31 04:06:18;;;;;;;20.58;5.68;;;;;;;14.65;100.00;100812.59;4940247;29;20036;-93
2023/07/31 04:08:44;;;;;;;15.33;5.57;;;;;;;14.60;100.00;100796.50;4956667;29;20028;-92
2023/07/31 04:11:10;;;;;;;22.13;5.40;;;;;;;14.57;100.00;100788.97;4960506;29;20051;-93
2023/07/31 04:13:35;;;;;;;20.70;6.13;;;;;;;14.75;100.00;100797.44;4959933;29;20031;-93
2023/07/31 04:16:01;;;;;;;17.08;5.30;;;;;;;14.75;100.00;100803.63;4960234;29;20100;-93
2023/07/31 04:18:26;;;;;;;19.20;5.77;;;;;;;14.68;100.00;100778.91;4960530;29;20023;-93
2023/07/31 04:20:51;;;;;;;21.23;6.17;;;;;;;14.80;100.00;100790.09;4960198;29;20095;-92
2023/07/31 04:23:17;;;;;;;17.90;5.43;;;;;;;14.74;100.00;100779.66;4959771;29;20028;-93
2023/07/31 04:25:42;;;;;;;19.60;5.18;;;;;;;14.84;100.00;100790.31;4951813;29;20039;-93
2023/07/31 04:28:07;;;;;;;24.57;5.40;;;;;;;14.88;100.00;100783.28;4937601;29;20031;-95
2023/07/31 04:30:33;;;;;;;21.43;5.83;;;;;;;14.80;100.00;100771.22;4935816;29;20040;-94
2023/07/31 04:32:58;;;;;;;15.52;4.80;;;;;;;14.92;100.00;100788.88;4936000;29;20381;-95
2023/07/31 04:35:24;;;;;;;18.73;5.03;;;;;;;14.82;100.00;100766.34;4936722;29;20028;-94
2023/07/31 04:37:49;;;;;;;26.07;5.80;;;;;;;14.79;100.00;100749.94;4937589;29;20086;-93
2023/07/31 04:40:16;;;;;;;18.23;5.33;;;;;;;14.97;100.00;100786.94;4938051;29;20372;-95
2023/07/31 04:42:41;;;;;;;19.35;5.47;;;;;;;15.00;100.00;100777.47;4938101;29;20099;-94
2023/07/31 04:45:08;;;;;;;21.43;5.40;;;;;;;15.06;100.00;100779.03;4938333;29;20059;-95
2023/07/31 04:47:33;;;;;;;21.27;5.90;;;;;;;15.05;100.00;100779.28;4938758;29;20083;-95
2023/07/31 04:49:59;;;;;;;22.03;5.60;;;;;;;15.03;100.00;100763.41;4942736;29;20028;-95
2023/07/31 04:52:24;;;;;;;21.90;5.97;;;;;;;14.93;100.00;100734.66;4952028;29;20996;-95
2023/07/31 04:54:49;;;;;;;23.77;5.77;;;;;;;15.16;100.00;100767.25;4959477;29;20012;-95
2023/07/31 04:57:15;;;;;;;16.67;5.40;;;;;;;15.06;100.00;100748.53;4959058;29;20032;-95
2023/07/31 04:59:40;;;;;;;18.37;5.40;;;;;;;15.10;100.00;100747.66;4959498;29;20012;-94
2023/07/31 05:02:08;;;;;;;16.30;5.50;;;;;;;15.19;100.00;100757.81;4959059;29;20027;-94
2023/07/31 05:04:33;;;;;;;18.13;5.40;;;;;;;15.22;100.00;100757.22;4959179;29;20015;-96
2023/07/31 05:06:58;;;;;;;22.63;6.40;;;;;;;15.26;100.00;100756.34;4958868;29;20099;-95
2023/07/31 05:09:24;;;;;;;17.80;5.63;;;;;;;15.26;100.00;100753.66;4942936;29;20027;-96
2023/07/31 05:11:49;;;;;;;20.50;5.57;;;;;;;15.21;100.00;100751.00;4936917;29;20024;-95
2023/07/31 05:14:15;;;;;;;17.50;5.50;;;;;;;15.21;100.00;100751.00;4940754;29;20020;-95
2023/07/31 05:16:41;;;;;;;21.40;6.03;;;;;;;15.06;100.00;100735.03;4947457;29;20024;-94
2023/07/31 05:19:06;;;;;;;22.30;6.40;;;;;;;15.16;100.00;100745.66;4935201;29;20028;-94
2023/07/31 05:21:31;;;;;;;17.98;6.25;;;;;;;15.00;100.00;100718.09;4935231;29;20508;-93
2023/07/31 05:23:57;;;;;;;17.23;6.07;;;;;;;15.20;100.00;100749.41;4935023;29;20038;-94
2023/07/31 05:26:22;;;;;;;18.00;6.30;;;;;;;15.12;100.00;100726.56;4935390;29;20035;-94
2023/07/31 05:28:48;;;;;;;16.30;5.67;;;;;;;15.12;100.00;100739.28;4935153;29;20525;-94
2023/07/31 05:31:13;;;;;;;18.38;6.82;;;;;;;14.98;100.00;100726.47;4934003;29;20068;-95
2023/07/31 05:33:38;;;;;;;18.43;5.80;;;;;;;15.08;100.00;100735.53;4934722;29;20047;-94
2023/07/31 05:36:04;;;;;;;19.10;6.47;;;;;;;15.08;100.00;100743.63;4935775;29;20444;-94
2023/07/31 05:38:29;;;;;;;15.97;6.10;;;;;;;15.10;100.00;100742.25;4949165;29;20038;-93
2023/07/31 05:40:55;;;;;;;16.30;6.43;;;;;;;15.11;100.00;100732.28;4936678;29;20324;-93
2023/07/31 05:43:21;;;;;;;18.47;6.10;;;;;;;15.20;100.00;100762.91;4939014;29;20123;-94
2023/07/31 05:45:46;;;;;;;19.00;5.53;;;;;;;15.03;100.00;100736.41;4957124;29;20038;-94
2023/07/31 05:48:12;;;;;;;15.40;5.80;;;;;;;15.18;100.00;100746.19;4939367;29;20028;-93
2023/07/31 05:50:39;;;;;;;12.25;5.68;;;;;;;15.12;100.00;100725.78;4935396;29;20031;-93
2023/07/31 05:53:05;;;;;;;17.77;5.65;;;;;;;15.17;100.00;100728.38;4935234;29;20106;-94
2023/07/31 05:55:31;;;;;;;12.63;5.30;;;;;;;15.11;100.00;100716.06;4935056;29;20110;-95
2023/07/31 05:57:56;;;;;;;12.98;5.25;;;;;;;15.07;100.00;100709.66;4933585;29;20027;-94
2023/07/31 06:00:22;;;;;;;12.57;5.07;;;;;;;15.18;100.00;100724.59;4935302;29;20536;-94
2023/07/31 06:02:48;;;;;;;11.90;4.93;;;;;;;15.19;100.00;100722.72;4934694;29;20030;-93
2023/07/31 06:05:13;;;;;;;10.93;4.80;;;;;;;15.22;100.00;100722.13;4934724;29;20122;-94
2023/07/31 06:07:39;;;;;;;11.60;4.93;;;;;;;15.22;100.00;100722.94;4934539;29;20028;-93
2023/07/31 06:10:05;;;;;;;7.77;4.77;;;;;;;15.20;100.00;100717.00;4936284;29;20103;-94
2023/07/31 06:12:34;;;;;;;9.77;4.70;;;;;;;15.27;100.00;100717.47;4934566;29;20476;-93
2023/07/31 06:15:00;;;;;;;10.70;4.57;;;;;;;15.31;100.00;100716.88;4934848;29;20031;-93
2023/07/31 06:17:26;;;;;;;6.53;4.43;;;;;;;15.33;100.00;100717.41;4935518;29;20039;-94
2023/07/31 06:19:51;;;;;;;8.88;4.25;;;;;;;15.26;100.00;100709.66;4934581;29;20043;-93
2023/07/31 06:22:17;;;;;;;8.85;4.40;;;;;;;15.12;100.00;100682.59;4935883;29;20087;-96
2023/07/31 06:24:43;;;;;;;6.47;4.00;;;;;;;15.34;100.00;100710.91;4935463;29;20064;-93
2023/07/31 06:27:08;;;;;;;7.47;4.27;;;;;;;15.38;100.00;100706.50;4935572;29;20035;-92
2023/07/31 06:29:34;;;;;;;8.50;4.53;;;;;;;15.29;100.00;100688.28;4935093;29;20478;-93
2023/07/31 06:32:00;;;;;;;8.27;4.57;;;;;;;15.40;100.00;100688.13;4935685;29;20042;-93
2023/07/31 06:34:25;;;;;;;11.60;5.50;;;;;;;15.53;100.00;100697.38;4943447;29;20066;-94
2023/07/31 06:36:50;;;;;;;11.03;5.27;;;;;;;15.44;100.00;100684.53;4934716;29;20074;-94
2023/07/31 06:39:16;;;;;;;10.97;6.00;;;;;;;15.50;100.00;100687.97;4935275;29;20744;-93
2023/07/31 06:41:42;;;;;;;10.27;5.27;;;;;;;15.54;100.00;100696.28;4935199;29;20024;-94
2023/07/31 06:44:08;;;;;;;9.57;4.90;;;;;;;15.61;100.00;100694.00;4936329;29;20064;-93
2023/07/31 06:46:33;;;;;;;10.40;5.10;;;;;;;15.58;100.00;100690.00;4938003;29;20114;-95
2023/07/31 06:48:59;;;;;;;11.35;5.07;;;;;;;15.64;100.00;100685.31;4938133;29;20035;-94
2023/07/31 06:51:24;;;;;;;8.23;5.00;;;;;;;15.58;100.00;100673.00;4938380;29;20024;-92
2023/07/31 06:53:50;;;;;;;9.47;4.70;;;;;;;15.53;100.00;100667.66;4937480;29;20028;-94
2023/07/31 06:56:15;;;;;;;7.30;4.67;;;;;;;15.51;100.00;100667.97;4937575;29;20032;-93
2023/07/31 06:58:40;;;;;;;7.87;5.17;;;;;;;15.54;100.00;100661.19;4946754;29;20096;-94
2023/07/31 07:01:06;;;;;;;8.88;4.80;;;;;;;15.48;100.00;100668.56;4953210;29;20059;-94
2023/07/31 07:03:32;;;;;;;8.33;4.70;;;;;;;15.57;100.00;100690.28;4938823;29;20111;-94
2023/07/31 07:05:57;;;;;;;7.68;4.95;;;;;;;15.49;100.00;100659.38;4953420;29;20015;-94
2023/07/31 07:08:24;;;;;;;6.80;4.90;;;;;;;15.56;100.00;100665.19;4947582;29;20038;-93
2023/07/31 07:10:49;;;;;;;9.88;5.25;;;;;;;15.64;100.00;100660.22;4938832;29;20027;-93
2023/07/31 07:13:14;;;;;;;11.37;5.07;;;;;;;15.89;100.00;100669.78;4938373;29;20044;-93
2023/07/31 07:15:40;;;;;;;9.93;5.47;;;;;;;15.90;100.00;100657.88;4937915;29;20059;-94
2023/07/31 07:18:05;;;;;;;8.97;5.20;;;;;;;15.98;100.00;100657.19;4941978;29;20032;-94
2023/07/31 07:20:31;;;;;;;8.52;5.38;;;;;;;16.03;100.00;100659.00;4936603;29;20514;-94
2023/07/31 07:28:06;;;;;;;6.70;4.50;;;;;;;15.82;100.00;100645.03;5969759;23;20014;-93
2023/07/31 07:30:32;;;;;;;6.73;3.93;;;;;;;15.89;100.00;100661.69;4939332;29;20058;-94
2023/07/31 07:32:57;;;;;;;8.00;4.67;;;;;;;15.65;100.00;100632.09;4938375;29;20023;-94
2023/07/31 07:35:22;;;;;;;6.80;4.60;;;;;;;15.89;100.00;100645.47;4938217;29;20130;-94
2023/07/31 07:37:49;;;;;;;6.93;4.53;;;;;;;15.86;100.00;100657.69;4938027;29;20032;-94
2023/07/31 07:40:15;;;;;;;7.22;4.95;;;;;;;15.88;100.00;100655.50;4937064;29;20035;-94
2023/07/31 07:52:15;;;;;;;16.40;6.80;;;;;;;16.14;100.00;100656.94;4945301;23;20052;-96
2023/07/31 07:54:41;;;;;;;9.97;5.63;;;;;;;16.00;100.00;100635.28;4936793;29;20047;-96
2023/07/31 07:57:06;;;;;;;12.93;7.23;;;;;;;16.11;100.00;100627.78;4935466;29;20038;-96
2023/07/31 07:59:31;;;;;;;10.17;5.90;;;;;;;16.17;100.00;100651.72;4937333;29;20103;-96
2023/07/31 08:01:57;;;;;;;7.77;5.60;;;;;;;16.15;100.00;100659.31;4937749;29;20059;-95
2023/07/31 08:04:23;;;;;;;11.38;6.03;;;;;;;16.06;100.00;100642.22;4936679;29;20027;-95
2023/07/31 08:06:48;;;;;;;11.57;6.40;;;;;;;15.98;100.00;100638.28;4938310;29;20032;-95
2023/07/31 08:09:13;;;;;;;11.10;6.28;;;;;;;15.90;100.00;100633.56;4939069;29;20027;-95
2023/07/31 08:11:39;;;;;;;11.87;6.40;;;;;;;16.05;100.00;100649.50;4938211;29;20035;-95
2023/07/31 08:14:04;;;;;;;12.07;6.27;;;;;;;16.12;100.00;100654.50;4938065;29;20020;-96
2023/07/31 08:16:29;;;;;;;10.47;6.47;;;;;;;16.10;100.00;100650.50;4938171;29;20094;-96
2023/07/31 08:18:55;;;;;;;10.83;6.10;;;;;;;16.20;100.00;100664.63;4943757;29;20028;-96
2023/07/31 08:21:22;;;;;;;10.57;6.77;;;;;;;16.18;100.00;100657.91;4958993;29;20283;-96
2023/07/31 08:23:47;;;;;;;11.95;6.72;;;;;;;16.02;100.00;100627.69;4945106;29;20361;-96
2023/07/31 08:26:17;;;;;;;9.77;6.73;;;;;;;16.03;100.00;100637.41;4947309;28;20039;-95
2023/07/31 08:28:43;;;;;;;10.80;6.53;;;;;;;16.13;100.00;100658.81;4948285;29;20027;-95
2023/07/31 08:31:08;;;;;;;11.67;6.83;;;;;;;16.12;100.00;100645.59;4939380;29;20380;-95
2023/07/31 08:33:33;;;;;;;10.13;6.97;;;;;;;16.15;100.00;100648.50;4938960;29;20103;-96
2023/07/31 08:35:59;;;;;;;11.70;6.47;;;;;;;16.10;100.00;100640.50;4937844;29;20290;-96
2023/07/31 08:38:26;;;;;;;13.60;7.03;;;;;;;16.03;100.00;100615.78;4937986;29;20480;-95
2023/07/31 08:40:51;;;;;;;12.68;6.97;;;;;;;16.20;100.00;100628.69;4938257;29;20020;-96
2023/07/31 08:43:18;;;;;;;13.13;7.60;;;;;;;16.35;100.00;100647.28;4940350;29;20032;-96
2023/07/31 08:45:44;;;;;;;11.88;7.15;;;;;;;16.20;100.00;100634.91;4943066;29;20032;-96
2023/07/31 08:48:38;;;;;;;10.10;6.82;;;;;;;16.27;100.00;100648.00;4942536;29;20030;-96
2023/07/31 08:51:03;;;;;;;11.07;6.13;;;;;;;16.08;100.00;100639.19;4942615;29;20075;-96
2023/07/31 08:53:29;;;;;;;11.90;6.57;;;;;;;16.17;100.00;100661.72;4938662;29;20084;-96
2023/07/31 08:55:56;;;;;;;12.43;6.67;;;;;;;16.12;100.00;100637.50;4944307;29;20015;-96
2023/07/31 08:58:23;;;;;;;11.95;5.95;;;;;;;16.11;100.00;100646.72;4960347;29;20019;-95
2023/07/31 09:00:50;;;;;;;10.32;6.03;;;;;;;16.18;100.00;100647.91;4959193;29;20330;-96
2023/07/31 09:03:23;;;;;;;13.00;6.72;;;;;;;16.14;100.00;100655.00;4958073;29;20024;-96
2023/07/31 09:05:51;;;;;;;11.40;6.32;;;;;;;16.07;100.00;100634.88;4959209;29;20020;-96
2023/07/31 09:08:38;;;;;;;12.45;6.95;;;;;;;16.29;100.00;100645.00;4959052;29;20039;-96
2023/07/31 09:11:05;;;;;;;13.27;6.97;;;;;;;15.98;100.00;100605.06;5039571;23;20924;-96
2023/07/31 09:13:32;;;;;;;12.15;6.50;;;;;;;16.10;100.00;100610.75;4960024;29;20398;-96
2023/07/31 09:15:58;;;;;;;11.70;6.90;;;;;;;16.04;100.00;100609.28;4958667;29;20011;-96
2023/07/31 09:18:45;;;;;;;13.10;7.17;;;;;;;16.30;100.00;100633.09;4943621;29;20287;-96
2023/07/31 09:21:17;;;;;;;16.08;6.82;;;;;;;16.09;100.00;100603.75;5195430;23;20038;-96
2023/07/31 09:23:47;;;;;;;11.60;6.45;;;;;;;16.38;100.00;100640.50;4959605;29;20039;-96
2023/07/31 09:26:45;;;;;;;17.92;7.20;;;;;;;16.26;100.00;100608.56;5030642;23;20095;-95
2023/07/31 09:42:26;;;;;;;8.83;5.93;;;;;;;16.78;100.00;100610.16;4953405;28;20316;-96
2023/07/31 09:44:52;;;;;;;11.93;5.88;;;;;;;16.77;100.00;100612.09;4948074;29;20027;-96
2023/07/31 09:47:26;;;;;;;7.65;5.63;;;;;;;16.87;100.00;100621.06;4955744;28;20059;-96
2023/07/31 09:50:24;;;;;;;11.90;5.90;;;;;;;17.02;100.00;100636.97;4951369;28;20028;-96
2023/07/31 09:52:50;;;;;;;9.75;5.55;;;;;;;16.72;100.00;100595.97;5016347;23;20081;-96
2023/07/31 09:55:21;;;;;;;11.73;5.53;;;;;;;17.05;100.00;100641.78;4948582;29;20027;-96
2023/07/31 09:57:50;;;;;;;11.40;5.10;;;;;;;16.98;100.00;100608.91;4945800;29;20643;-96
2023/07/31 10:00:24;;;;;;;8.65;4.78;;;;;;;17.18;100.00;100633.91;4948547;29;20012;-96
2023/07/31 10:02:51;;;;;;;9.15;5.40;;;;;;;16.97;100.00;100595.72;4945715;29;20039;-96
2023/07/31 10:05:17;;;;;;;9.15;5.13;;;;;;;16.95;100.00;100583.28;4943279;29;20020;-96
2023/07/31 10:07:49;;;;;;;9.37;5.17;;;;;;;16.97;100.00;100584.88;4950596;29;20043;-96
2023/07/31 10:18:39;;;;;;;13.30;5.22;;;;;;;17.49;100.00;100622.34;5856301;23;20042;-96
2023/07/31 10:21:05;;;;;;;12.77;5.20;;;;;;;17.82;100.00;100619.34;4962840;29;20020;-96
2023/07/31 10:23:33;;;;;;;8.02;4.80;;;;;;;18.06;100.00;100601.94;5041531;23;20067;-95
2023/07/31 10:28:35;;;;;;;5.70;4.00;;;;;;;18.15;100.00;100584.56;5432418;23;20048;-96
2023/07/31 10:31:03;;;;;;;10.07;4.40;;;;;;;18.22;100.00;100573.25;4963052;29;20303;-96
2023/07/31 10:33:28;;;;;;;9.35;4.10;;;;;;;18.51;100.00;100593.56;4962152;29;20047;-96
2023/07/31 10:36:14;;;;;;;7.65;3.78;;;;;;;18.50;100.00;100621.81;4961742;29;20039;-96
2023/07/31 10:38:40;;;;;;;6.65;3.63;;;;;;;18.16;100.00;100598.91;4960989;28;20051;-96
2023/07/31 10:41:11;;;;;;;9.57;3.93;;;;;;;18.32;100.00;100623.69;4961318;29;20028;-96
2023/07/31 10:43:40;;;;;;;7.07;4.00;;;;;;;18.36;100.00;100621.94;4960774;29;20027;-96
2023/07/31 10:46:11;;;;;;;6.70;3.50;;;;;;;18.43;100.00;100626.91;4959512;29;20070;-96
2023/07/31 10:48:41;;;;;;;5.45;3.67;;;;;;;18.30;100.00;100610.44;4940009;29;20055;-96
2023/07/31 10:51:09;;;;;;;9.50;3.60;;;;;;;18.25;100.00;100607.88;4938454;29;20388;-96
2023/07/31 10:53:35;;;;;;;7.05;3.45;;;;;;;18.13;100.00;100613.91;4939110;29;20024;-96
2023/07/31 10:56:09;;;;;;;9.65;3.70;;;;;;;18.31;100.00;100630.22;4938693;29;20111;-96
2023/07/31 10:58:37;;;;;;;8.57;3.53;;;;;;;18.26;100.00;100582.34;4939753;29;20028;-96
2023/07/31 11:01:04;;;;;;;7.43;3.33;;;;;;;18.55;100.00;100624.38;4958939;29;20027;-96
2023/07/31 11:03:56;;;;;;;5.63;3.70;;;;;;;18.47;100.00;100608.88;4942628;29;20397;-96
2023/07/31 11:06:22;;;;;;;5.05;3.60;;;;;;;18.62;100.00;100613.84;4946636;29;20046;-96
2023/07/31 11:08:49;;;;;;;7.07;3.50;;;;;;;18.71;100.00;100607.63;4951795;29;20032;-96
2023/07/31 11:11:16;;;;;;;7.47;4.17;;;;;;;19.05;100.00;100614.19;4938085;29;20298;-96
2023/07/31 11:13:51;;;;;;;4.68;3.50;;;;;;;19.29;100.00;100623.78;4938699;29;20035;-96
2023/07/31 11:16:19;;;;;;;5.32;3.58;;;;;;;19.42;100.00;100600.25;4937535;29;20032;-96
2023/07/31 11:18:47;;;;;;;7.43;3.55;;;;;;;19.48;100.00;100610.63;4938646;29;20027;-96
2023/07/31 11:21:18;;;;;;;6.07;3.22;;;;;;;19.61;100.00;100618.91;4936715;29;20045;-96
2023/07/31 11:23:48;;;;;;;8.35;3.67;;;;;;;19.29;100.00;100585.75;4937162;29;20034;-96
2023/07/31 11:26:14;;;;;;;8.32;3.45;;;;;;;19.13;100.00;100623.47;4937520;29;20611;-96
2023/07/31 11:28:42;;;;;;;6.68;3.50;;;;;;;19.08;100.00;100627.13;4937432;29;20031;-95
2023/07/31 11:31:09;;;;;;;4.78;3.60;;;;;;;19.11;100.00;100612.94;4936374;29;20024;-95
2023/07/31 11:33:38;;;;;;;7.93;3.87;;;;;;;19.19;100.00;100608.59;4937407;29;20031;-95
2023/07/31 11:39:34;;;;;;;5.35;3.78;;;;;;;19.90;100.00;100579.34;4937121;29;20051;-95
2023/07/31 11:42:00;;;;;;;5.38;3.50;;;;;;;20.12;100.00;100562.72;4936131;29;20110;-95
2023/07/31 11:44:25;;;;;;;5.07;3.47;;;;;;;20.58;100.00;100592.81;4920025;29;20414;-95
2023/07/31 11:46:51;;;;;;;9.03;3.60;;;;;;;20.29;100.00;100577.34;4937323;29;20059;-96
2023/07/31 11:50:01;;;;;;;6.65;3.45;;;;;;;20.00;100.00;100559.94;4938245;29;20031;-96
2023/07/31 11:52:02;;;;;;;5.03;3.53;;;;;;;19.58;100.00;100554.31;4940809;28;20035;-95
2023/07/31 11:54:29;;;;;;;5.83;3.00;;;;;;;19.23;100.00;100536.22;4936893;28;20290;-96